Time;durP1;ratioP1;P1;durP2;ratioP2;P2;SDS_P1;SDS_P2;PMS_P1;PMS_P2;Temp;Humidity;BMP_temperature;BMP_pressure;BME280_temperature;BME280_humidity;BME280_pressure;Samples;Min_cycle;Max_cycle;Signal;HPM_P1;HPM_P2
2022/12/03 00:01:44;;;;;;;24.65;12.30;;;;;;;;;;5086206;28;20036;-54
2022/12/03 00:04:10;;;;;;;26.05;12.95;;;;;;;;;;5071279;28;20040;-53
2022/12/03 00:06:36;;;;;;;26.27;12.75;;;;;;;;;;5063065;28;20496;-52
2022/12/03 00:09:02;;;;;;;24.63;12.23;;;;;;;;;;5065023;28;20047;-51
2022/12/03 00:11:28;;;;;;;23.23;12.52;;;;;;;;;;5087484;28;20520;-56
2022/12/03 00:13:54;;;;;;;24.17;11.50;;;;;;;;;;5062077;28;20043;-52
2022/12/03 00:16:20;;;;;;;24.15;12.45;;;;;;;;;;5066226;28;20048;-51
2022/12/03 00:18:46;;;;;;;25.90;12.52;;;;;;;;;;5080467;28;20047;-54
2022/12/03 00:21:12;;;;;;;26.75;12.52;;;;;;;;;;5081150;28;20126;-55
2022/12/03 00:23:39;;;;;;;20.75;10.48;;;;;;;;;;5083149;28;20173;-54
2022/12/03 00:26:05;;;;;;;21.48;11.77;;;;;;;;;;5080308;28;20086;-54
2022/12/03 00:28:31;;;;;;;20.58;10.68;;;;;;;;;;5081384;28;20036;-55
2022/12/03 00:30:56;;;;;;;23.17;10.93;;;2.70;99.90;;;;;;5082504;28;20085;-53
2022/12/03 00:33:22;;;;;;;18.08;9.38;;;;;;;;;;5082744;28;20035;-54
2022/12/03 00:35:48;;;;;;;18.73;9.05;;;;;;;;;;5086128;28;20052;-54
2022/12/03 00:38:15;;;;;;;20.33;9.93;;;;;;;;;;5087571;28;20582;-55
2022/12/03 00:40:41;;;;;;;18.33;8.85;;;;;;;;;;5087528;28;20043;-54
2022/12/03 00:43:07;;;;;;;20.20;10.38;;;;;;;;;;5088182;28;20081;-55
2022/12/03 00:45:33;;;;;;;19.00;9.38;;;;;;;;;;5086951;28;20044;-53
2022/12/03 00:47:59;;;;;;;20.13;9.95;;;;;;;;;;5086225;28;20048;-51
2022/12/03 00:50:25;;;;;;;20.00;9.65;;;;;;;;;;5085155;28;20043;-51
2022/12/03 00:52:51;;;;;;;16.85;8.43;;;;;;;;;;5087842;28;20043;-54
2022/12/03 00:55:17;;;;;;;16.55;9.15;;;3.00;99.90;;;;;;5085160;28;20038;-54
2022/12/03 00:57:43;;;;;;;16.52;8.80;;;;;;;;;;5052043;28;20069;-54
2022/12/03 01:00:09;;;;;;;17.63;8.90;;;;;;;;;;5082708;28;20043;-55
2022/12/03 01:02:35;;;;;;;14.98;8.68;;;;;;;;;;5086715;28;20068;-52
2022/12/03 01:05:01;;;;;;;17.15;9.43;;;;;;;;;;5081203;28;20040;-54
2022/12/03 01:07:28;;;;;;;20.38;10.45;;;;;;;;;;5067473;28;20062;-52
2022/12/03 01:09:54;;;;;;;19.63;9.57;;;;;;;;;;5078907;28;20037;-50
2022/12/03 01:12:19;;;;;;;17.92;9.48;;;3.30;99.90;;;;;;5083112;28;20210;-51
2022/12/03 01:14:45;;;;;;;19.08;8.93;;;;;;;;;;5084594;28;20501;-55
2022/12/03 01:17:11;;;;;;;18.75;8.73;;;;;;;;;;5075725;28;20048;-56
2022/12/03 01:19:38;;;;;;;16.45;8.80;;;;;;;;;;5070947;28;20127;-54
2022/12/03 01:22:04;;;;;;;17.92;9.68;;;;;;;;;;5073658;28;20186;-54
2022/12/03 01:24:30;;;;;;;17.58;9.50;;;;;;;;;;5072393;28;20040;-53
2022/12/03 01:26:56;;;;;;;16.02;7.93;;;;;;;;;;5071794;28;20032;-54
2022/12/03 01:29:22;;;;;;;15.68;8.32;;;;;;;;;;5071196;28;20056;-55
2022/12/03 01:34:33;;;;;;;17.95;8.70;;;3.90;99.90;;;;;;5074858;28;20041;-55
2022/12/03 01:36:59;;;;;;;15.20;7.78;;;;;;;;;;5071835;28;20043;-54
2022/12/03 01:39:25;;;;;;;15.13;8.40;;;;;;;;;;5071685;28;20575;-52
2022/12/03 01:41:52;;;;;;;19.77;9.57;;;4.30;99.90;;;;;;5076407;28;20055;-55
2022/12/03 01:44:23;;;;;;;15.75;8.27;;;4.20;99.90;;;;;;5072739;28;20402;-52
2022/12/03 01:46:50;;;;;;;16.05;7.85;;;;;;;;;;5081826;28;20116;-53
2022/12/03 01:49:22;;;;;;;16.65;8.73;;;3.70;99.90;;;;;;5089112;28;20036;-54
2022/12/03 01:51:49;;;;;;;17.63;8.10;;;3.90;99.90;;;;;;5088485;28;20056;-54
2022/12/03 01:54:17;;;;;;;14.65;8.23;;;;;;;;;;5074525;28;20036;-54
2022/12/03 01:56:44;;;;;;;27.05;9.57;;;;;;;;;;5086076;28;20123;-53
2022/12/03 01:59:15;;;;;;;16.02;8.13;;;4.20;99.90;;;;;;5074919;28;20039;-54
2022/12/03 02:01:41;;;;;;;14.27;7.70;;;;;;;;;;5081373;28;20029;-55
2022/12/03 02:04:09;;;;;;;16.95;8.15;;;;;;;;;;5091531;28;20089;-55
2022/12/03 02:06:35;;;;;;;17.58;8.65;;;;;;;;;;5082137;28;20406;-55
2022/12/03 02:09:01;;;;;;;16.52;8.45;;;;;;;;;;5085020;28;20042;-54
2022/12/03 02:11:29;;;;;;;18.20;9.05;;;;;;;;;;5080484;28;20052;-55
2022/12/03 02:13:59;;;;;;;16.33;9.52;;;;;;;;;;5089919;28;20059;-55
2022/12/03 02:16:25;;;;;;;16.05;8.73;;;;;;;;;;5088445;28;20078;-54
2022/12/03 02:18:51;;;;;;;15.63;8.27;;;;;;;;;;5091622;28;20063;-54
2022/12/03 02:21:24;;;;;;;17.77;8.52;;;;;;;;;;5089727;28;20054;-55
2022/12/03 02:24:08;;;;;;;16.45;8.55;;;3.90;99.90;;;;;;5088876;28;20131;-52
2022/12/03 02:26:34;;;;;;;15.50;7.93;;;;;;;;;;5087359;28;20366;-56
2022/12/03 02:29:01;;;;;;;15.75;8.43;;;;;;;;;;5088119;28;20405;-54
2022/12/03 02:31:27;;;;;;;18.33;9.05;;;;;;;;;;5086178;28;20079;-55
2022/12/03 02:33:53;;;;;;;16.48;8.40;;;;;;;;;;5086740;28;20045;-54
2022/12/03 02:36:19;;;;;;;16.40;8.20;;;3.70;99.90;;;;;;5092675;28;20039;-55
2022/12/03 02:38:48;;;;;;;15.95;8.85;;;3.80;99.90;;;;;;5091180;28;20055;-55
2022/12/03 02:42:33;;;;;;;14.27;7.50;;;;;;;;;;5085612;28;20107;-52
2022/12/03 02:44:03;;;;;;;14.32;7.90;;;;;;;;;;5087432;28;20040;-54
2022/12/03 02:46:29;;;;;;;18.15;8.85;;;;;;;;;;5061348;28;20052;-53
2022/12/03 02:48:55;;;;;;;15.45;8.40;;;;;;;;;;5086760;28;20047;-53
2022/12/03 02:51:21;;;;;;;14.48;8.50;;;;;;;;;;5090915;28;20052;-54
2022/12/03 02:53:49;;;;;;;17.23;9.00;;;;;;;;;;5080100;28;20042;-51
2022/12/03 02:56:17;;;;;;;21.15;10.15;;;;;;;;;;5079722;28;20063;-56
2022/12/03 02:58:45;;;;;;;17.10;9.18;;;;;;;;;;5083087;28;20020;-52
2022/12/03 03:01:14;;;;;;;18.35;9.85;;;;;;;;;;5088711;28;20444;-53
2022/12/03 03:03:40;;;;;;;17.40;8.50;;;;;;;;;;5091510;28;20063;-52
2022/12/03 03:06:07;;;;;;;16.60;8.65;;;4.20;99.90;;;;;;5068882;28;20044;-52
2022/12/03 03:08:33;;;;;;;17.85;8.88;;;;;;;;;;5085518;28;20413;-54
2022/12/03 03:11:00;;;;;;;17.67;9.07;;;3.80;99.90;;;;;;5075538;28;20036;-52
2022/12/03 03:13:26;;;;;;;18.48;10.30;;;;;;;;;;5084822;28;20043;-51
2022/12/03 03:15:52;;;;;;;16.88;8.35;;;;;;;;;;5112640;22;20039;-57
2022/12/03 03:18:19;;;;;;;15.32;8.23;;;;;;;;;;5080696;28;20055;-55
2022/12/03 03:20:44;;;;;;;18.88;9.40;;;3.70;99.90;;;;;;5073514;28;20368;-57
2022/12/03 03:23:10;;;;;;;19.33;8.93;;;;;;;;;;5076127;28;20089;-57
2022/12/03 03:25:38;;;;;;;17.23;9.10;;;4.00;99.90;;;;;;5073809;28;20041;-56
2022/12/03 03:28:04;;;;;;;16.45;9.23;;;;;;;;;;5071323;28;20087;-57
2022/12/03 03:30:31;;;;;;;18.85;8.77;;;;;;;;;;5071533;28;20216;-57
2022/12/03 03:32:57;;;;;;;15.68;8.90;;;;;;;;;;5056599;28;20169;-57
2022/12/03 03:35:24;;;;;;;17.15;8.63;;;3.90;99.90;;;;;;5077735;28;20448;-54
2022/12/03 03:37:50;;;;;;;16.10;8.07;;;;;;;;;;5072264;28;20041;-57
2022/12/03 03:40:16;;;;;;;16.38;9.07;;;;;;;;;;5071359;28;20036;-55
2022/12/03 03:42:42;;;;;;;18.88;9.20;;;3.90;99.90;;;;;;5072665;28;21103;-57
2022/12/03 03:45:08;;;;;;;15.20;8.45;;;3.90;99.90;;;;;;5070413;28;20513;-55
2022/12/03 03:47:34;;;;;;;18.45;8.77;;;4.00;99.90;;;;;;5074597;28;20128;-56
2022/12/03 03:50:00;;;;;;;17.65;8.95;;;;;;;;;;5059760;28;20444;-57
2022/12/03 03:52:26;;;;;;;15.65;8.88;;;4.30;99.90;;;;;;5082264;28;20421;-57
2022/12/03 03:54:52;;;;;;;19.10;10.30;;;;;;;;;;5072149;28;20098;-56
2022/12/03 03:57:18;;;;;;;17.63;10.00;;;;;;;;;;5070832;28;20041;-56
2022/12/03 03:59:44;;;;;;;19.83;10.00;;;;;;;;;;5084615;28;20032;-55
2022/12/03 04:02:20;;;;;;;16.10;8.40;;;5.00;99.90;;;;;;5091443;28;20031;-56
2022/12/03 04:04:47;;;;;;;18.73;9.23;;;;;;;;;;5086017;28;20036;-57
2022/12/03 04:07:13;;;;;;;20.02;10.73;;;;;;;;;;5058701;28;20051;-57
2022/12/03 04:09:39;;;;;;;19.05;9.45;;;;;;;;;;5061814;28;20086;-57
2022/12/03 04:14:50;;;;;;;19.50;9.88;;;;;;;;;;5087095;28;20044;-57
2022/12/03 04:17:16;;;;;;;16.88;8.88;;;;;;;;;;5091455;28;20569;-57
2022/12/03 04:19:42;;;;;;;16.23;8.68;;;;;;;;;;5077859;28;20036;-56
2022/12/03 04:28:47;;;;;;;17.90;9.55;;;;;;;;;;5071391;28;20608;-57
2022/12/03 04:30:23;;;;;;;16.10;8.75;;;;;;;;;;5077813;28;20399;-57
2022/12/03 04:35:43;;;;;;;17.67;9.27;;;4.60;99.90;;;;;;5080423;28;20569;-57
2022/12/03 04:38:10;;;;;;;16.33;9.43;;;;;;;;;;5048423;28;20036;-61
2022/12/03 04:43:22;;;;;;;18.27;8.95;;;;;;;;;;5075865;28;20391;-57
2022/12/03 04:45:48;;;;;;;16.65;9.43;;;;;;;;;;5074323;28;20630;-57
2022/12/03 04:48:14;;;;;;;18.25;11.00;;;;;;;;;;5072338;28;20036;-57
2022/12/03 04:50:40;;;;;;;19.08;10.48;;;;;;;;;;5079537;28;20207;-57
2022/12/03 04:53:06;;;;;;;19.98;11.23;;;;;;;;;;5071753;28;20036;-57
2022/12/03 04:55:32;;;;;;;16.98;9.40;;;;;;;;;;5076302;28;20105;-57
2022/12/03 04:57:58;;;;;;;19.15;9.63;;;4.80;99.90;;;;;;5094183;28;20485;-57
2022/12/03 05:00:24;;;;;;;17.60;9.93;;;;;;;;;;5088112;28;20064;-57
2022/12/03 05:02:50;;;;;;;19.90;10.77;;;;;;;;;;5072585;28;20108;-57
2022/12/03 05:05:16;;;;;;;18.70;10.73;;;;;;;;;;5069366;28;20410;-57
2022/12/03 05:07:42;;;;;;;18.55;10.32;;;4.80;99.90;;;;;;5069553;28;20068;-57
2022/12/03 05:10:08;;;;;;;17.65;9.30;;;4.80;99.90;;;;;;5070468;28;20075;-57
2022/12/03 05:12:34;;;;;;;19.77;10.95;;;4.70;99.90;;;;;;5056406;28;20048;-57
2022/12/03 05:15:00;;;;;;;20.60;10.43;;;;;;;;;;5078637;28;20505;-57
2022/12/03 05:17:26;;;;;;;19.02;9.98;;;;;;;;;;5051194;28;20051;-57
2022/12/03 05:22:36;;;;;;;19.75;10.60;;;;;;;;;;5076118;28;20041;-57
2022/12/03 05:25:03;;;;;;;19.50;10.25;;;;;;;;;;5077077;28;20058;-57
2022/12/03 05:27:32;;;;;;;21.30;10.98;;;;;;;;;;5081612;28;20040;-57
2022/12/03 05:29:57;;;;;;;20.58;11.48;;;4.70;99.90;;;;;;5076116;28;20039;-57
2022/12/03 05:32:23;;;;;;;18.00;10.68;;;;;;;;;;5078890;28;20410;-57
2022/12/03 05:34:49;;;;;;;19.88;10.73;;;;;;;;;;5076327;28;20074;-57
2022/12/03 05:37:15;;;;;;;18.52;10.30;;;;;;;;;;5085650;28;20032;-57
2022/12/03 05:39:41;;;;;;;17.13;9.73;;;;;;;;;;5080660;28;20043;-57
2022/12/03 05:44:53;;;;;;;20.23;11.25;;;4.70;99.90;;;;;;5082603;28;20461;-57
2022/12/03 05:47:19;;;;;;;19.65;10.68;;;;;;;;;;5086423;28;20066;-57
2022/12/03 05:49:45;;;;;;;17.90;9.00;;;;;;;;;;5084279;28;20123;-57
2022/12/03 05:52:11;;;;;;;18.40;9.93;;;4.80;99.90;;;;;;5077048;28;20108;-57
2022/12/03 05:54:37;;;;;;;18.95;10.38;;;;;;;;;;5079124;28;20415;-57
2022/12/03 05:57:03;;;;;;;17.25;9.70;;;;;;;;;;5070569;28;20047;-57
2022/12/03 05:59:29;;;;;;;19.85;10.70;;;;;;;;;;5075938;28;20101;-57
2022/12/03 06:01:54;;;;;;;18.70;10.82;;;4.70;99.90;;;;;;5069747;28;20559;-57
2022/12/03 06:04:20;;;;;;;24.30;11.23;;;4.80;99.90;;;;;;5068218;28;20051;-57
2022/12/03 06:06:46;;;;;;;18.67;10.38;;;;;;;;;;5077855;28;20045;-57
2022/12/03 06:09:12;;;;;;;17.88;9.60;;;;;;;;;;5074445;28;20089;-57
2022/12/03 06:11:39;;;;;;;19.65;9.52;;;;;;;;;;5079621;28;20072;-57
2022/12/03 06:14:05;;;;;;;17.10;9.13;;;4.50;99.90;;;;;;5084480;28;20528;-58
2022/12/03 06:16:31;;;;;;;18.50;9.90;;;;;;;;;;5080726;28;20075;-57
2022/12/03 06:18:57;;;;;;;21.55;10.40;;;;;;;;;;5080663;28;20111;-56
2022/12/03 06:21:23;;;;;;;19.38;9.88;;;;;;;;;;5076167;28;20498;-56
2022/12/03 06:23:49;;;;;;;19.60;10.25;;;;;;;;;;5079533;28;20040;-55
2022/12/03 06:26:15;;;;;;;17.70;9.05;;;;;;;;;;5073594;28;20036;-57
2022/12/03 06:28:45;;;;;;;15.43;8.55;;;;;;;;;;5084936;28;20517;-57
2022/12/03 06:31:11;;;;;;;17.75;9.98;;;;;;;;;;5074436;28;20036;-57
2022/12/03 06:33:37;;;;;;;16.35;9.05;;;;;;;;;;5081992;28;20024;-57
2022/12/03 06:36:03;;;;;;;17.90;9.35;;;;;;;;;;5090948;28;20036;-56
2022/12/03 06:38:29;;;;;;;17.52;9.00;;;4.70;99.90;;;;;;5074575;28;20506;-57
2022/12/03 06:40:55;;;;;;;18.88;9.50;;;;;;;;;;5079483;28;20111;-56
2022/12/03 06:43:21;;;;;;;16.92;9.88;;;;;;;;;;5073972;28;20039;-56
2022/12/03 06:45:47;;;;;;;15.50;9.27;;;;;;;;;;5075246;28;20040;-55
2022/12/03 06:48:13;;;;;;;18.38;9.52;;;4.60;99.90;;;;;;5079204;28;20482;-56
2022/12/03 06:50:39;;;;;;;17.65;9.65;;;;;;;;;;5063779;28;20040;-56
2022/12/03 06:53:05;;;;;;;16.50;8.55;;;;;;;;;;5082298;28;20127;-57
2022/12/03 06:55:31;;;;;;;19.02;9.65;;;;;;;;;;5080222;28;20036;-56
2022/12/03 06:57:57;;;;;;;15.32;8.43;;;;;;;;;;5084600;28;20055;-56
2022/12/03 07:00:24;;;;;;;16.65;9.23;;;;;;;;;;5082929;28;20312;-56
2022/12/03 07:02:50;;;;;;;16.52;8.43;;;;;;;;;;5090196;28;20035;-56
2022/12/03 07:05:16;;;;;;;18.60;10.18;;;;;;;;;;5068675;28;20044;-56
2022/12/03 07:07:42;;;;;;;18.67;9.13;;;;;;;;;;5089575;28;20126;-56
2022/12/03 07:10:08;;;;;;;14.95;8.68;;;;;;;;;;5059861;28;20044;-56
2022/12/03 07:12:34;;;;;;;16.85;9.10;;;;;;;;;;5071429;28;20041;-56
2022/12/03 07:15:00;;;;;;;17.00;9.50;;;;;;;;;;5071612;28;20043;-56
2022/12/03 07:17:26;;;;;;;19.25;9.38;;;;;;;;;;5075008;28;20051;-56
2022/12/03 07:19:52;;;;;;;18.85;9.88;;;;;;;;;;5074957;28;20036;-57
2022/12/03 07:22:18;;;;;;;14.60;7.90;;;4.40;99.90;;;;;;5075250;28;20032;-56
2022/12/03 07:24:44;;;;;;;20.45;10.35;;;;;;;;;;5070712;28;20040;-55
2022/12/03 07:27:10;;;;;;;17.63;9.25;;;;;;;;;;5072907;28;20119;-56
2022/12/03 07:29:36;;;;;;;18.75;9.70;;;;;;;;;;5058205;28;20447;-56
2022/12/03 07:32:02;;;;;;;18.55;8.90;;;;;;;;;;5075317;28;20036;-56
2022/12/03 07:34:28;;;;;;;17.25;8.60;;;;;;;;;;5070870;28;20402;-56
2022/12/03 07:36:54;;;;;;;17.60;9.75;;;;;;;;;;5081030;28;20048;-56
2022/12/03 07:39:20;;;;;;;15.05;8.20;;;;;;;;;;5073166;28;20436;-56
2022/12/03 07:41:46;;;;;;;19.25;9.75;;;;;;;;;;5092387;28;20036;-56
2022/12/03 07:44:11;;;;;;;16.52;9.32;;;4.50;99.90;;;;;;5080943;28;20489;-56
2022/12/03 07:46:37;;;;;;;15.57;8.57;;;;;;;;;;5081611;28;20032;-56
2022/12/03 07:49:03;;;;;;;17.92;9.57;;;;;;;;;;5061436;28;20068;-56
2022/12/03 07:51:29;;;;;;;17.95;9.32;;;4.60;99.90;;;;;;5071669;28;20036;-56
2022/12/03 07:53:55;;;;;;;17.65;9.57;;;;;;;;;;5074971;28;20044;-56
2022/12/03 07:56:21;;;;;;;16.92;8.93;;;;;;;;;;5089218;28;20434;-56
2022/12/03 07:58:47;;;;;;;21.02;9.88;;;;;;;;;;5080112;28;20074;-56
2022/12/03 08:01:13;;;;;;;18.05;8.32;;;4.40;99.90;;;;;;5080712;28;20123;-56
2022/12/03 08:03:38;;;;;;;16.73;8.55;;;4.50;99.90;;;;;;5080851;28;20103;-56
2022/12/03 08:06:04;;;;;;;19.50;9.73;;;;;;;;;;5080915;28;20032;-53
2022/12/03 08:08:30;;;;;;;17.58;9.25;;;;;;;;;;5072626;28;20041;-55
2022/12/03 08:10:56;;;;;;;18.42;9.73;;;;;;;;;;5075225;28;20055;-55
2022/12/03 08:13:22;;;;;;;16.92;8.65;;;;;;;;;;5076144;28;20048;-53
2022/12/03 08:15:48;;;;;;;16.23;9.13;;;;;;;;;;5081104;28;20040;-54
2022/12/03 08:18:16;;;;;;;18.40;10.07;;;;;;;;;;5073818;28;20040;-56
2022/12/03 08:20:44;;;;;;;17.80;9.05;;;;;;;;;;5078715;28;20032;-53
2022/12/03 08:23:21;;;;;;;16.77;8.57;;;3.80;99.90;;;;;;5085186;28;20059;-56
2022/12/03 08:25:49;;;;;;;15.63;8.30;;;4.10;99.90;;;;;;5074418;28;20469;-56
2022/12/03 08:28:27;;;;;;;19.65;9.45;;;;;;;;;;5075809;28;20113;-56
2022/12/03 08:30:59;;;;;;;21.77;9.23;;;;;;;;;;5076392;28;20549;-55
2022/12/03 08:33:27;;;;;;;18.20;9.82;;;;;;;;;;5079067;28;20040;-56
2022/12/03 08:35:53;;;;;;;19.48;9.88;;;;;;;;;;5077885;28;20036;-56
2022/12/03 08:38:21;;;;;;;19.45;10.35;;;;;;;;;;5078746;28;20521;-56
2022/12/03 08:40:49;;;;;;;20.27;10.50;;;;;;;;;;5082171;28;20106;-56
2022/12/03 08:43:26;;;;;;;19.13;9.35;;;;;;;;;;5078316;28;20050;-56
2022/12/03 08:45:53;;;;;;;18.52;10.23;;;;;;;;;;5080324;28;20063;-56
2022/12/03 08:48:19;;;;;;;18.15;9.27;;;;;;;;;;5055780;28;20047;-55
2022/12/03 08:50:46;;;;;;;16.92;9.07;;;;;;;;;;5064622;28;20111;-56
2022/12/03 08:53:26;;;;;;;17.00;9.18;;;4.60;99.90;;;;;;5066354;28;20036;-55
2022/12/03 08:55:53;;;;;;;17.33;9.63;;;4.20;99.90;;;;;;5066794;28;20501;-56
2022/12/03 08:58:31;;;;;;;18.60;10.02;;;;;;;;;;5070602;28;20375;-55
2022/12/03 09:01:00;;;;;;;18.08;10.13;;;;;;;;;;5084614;28;20036;-54
2022/12/03 09:03:29;;;;;;;19.58;9.57;;;4.90;99.90;;;;;;5077995;28;20036;-56
2022/12/03 09:05:55;;;;;;;18.20;9.73;;;;;;;;;;5040274;28;20045;-54
2022/12/03 09:08:21;;;;;;;18.42;10.43;;;4.50;99.90;;;;;;5067343;28;20052;-58
2022/12/03 09:10:47;;;;;;;19.00;9.93;;;;;;;;;;5068338;28;20032;-56
2022/12/03 09:13:13;;;;;;;17.20;8.30;;;;;;;;;;5048119;28;20071;-56
2022/12/03 09:15:39;;;;;;;20.42;9.50;;;;;;;;;;5066893;28;20537;-55
2022/12/03 09:18:05;;;;;;;19.63;10.32;;;;;;;;;;5067453;28;20136;-56
2022/12/03 09:20:31;;;;;;;18.23;10.85;;;4.50;99.90;;;;;;5067123;28;20040;-56
2022/12/03 09:22:57;;;;;;;18.10;9.80;;;;;;;;;;5066188;28;20051;-56
2022/12/03 09:25:23;;;;;;;18.27;9.57;;;;;;;;;;5066463;28;20094;-55
2022/12/03 09:27:48;;;;;;;18.10;9.32;;;4.40;99.90;;;;;;5073222;28;20082;-56
2022/12/03 09:30:15;;;;;;;20.27;12.18;;;;;;;;;;5068900;28;20237;-56
2022/12/03 09:32:41;;;;;;;17.20;10.07;;;;;;;;;;5068699;28;20055;-56
2022/12/03 09:35:07;;;;;;;20.83;10.75;;;;;;;;;;5136143;22;20028;-61
2022/12/03 09:37:33;;;;;;;17.67;9.95;;;4.40;99.90;;;;;;5077297;28;20539;-63
2022/12/03 09:39:59;;;;;;;16.92;9.30;;;;;;;;;;5085735;28;20060;-63
2022/12/03 09:42:25;;;;;;;16.42;8.93;;;;;;;;;;5072790;28;20040;-63
2022/12/03 09:44:51;;;;;;;18.75;9.98;;;;;;;;;;5074332;28;20106;-63
2022/12/03 09:47:17;;;;;;;20.90;10.38;;;4.60;99.90;;;;;;5076575;28;20036;-63
2022/12/03 09:49:43;;;;;;;22.45;10.85;;;;;;;;;;5072218;28;20036;-63
2022/12/03 09:52:19;;;;;;;18.02;9.05;;;;;;;;;;5057079;28;20036;-63
2022/12/03 09:54:45;;;;;;;19.63;9.68;;;;;;;;;;5079571;28;20037;-63
2022/12/03 09:57:12;;;;;;;18.75;10.00;;;;;;;;;;5073078;28;20051;-63
2022/12/03 09:59:38;;;;;;;20.70;11.30;;;;;;;;;;5074139;28;20501;-64
2022/12/03 10:02:10;;;;;;;18.65;9.57;;;;;;;;;;5075430;28;20505;-64
2022/12/03 10:04:36;;;;;;;18.45;9.10;;;;;;;;;;5071849;28;20508;-65
2022/12/03 10:07:02;;;;;;;18.27;9.68;;;;;;;;;;5076062;28;20032;-65
2022/12/03 10:09:29;;;;;;;17.92;9.70;;;;;;;;;;5056174;28;20059;-65
2022/12/03 10:11:59;;;;;;;18.27;10.10;;;;;;;;;;5067900;28;20040;-65
2022/12/03 10:14:25;;;;;;;19.17;9.40;;;;;;;;;;5073834;28;20136;-65
2022/12/03 10:16:51;;;;;;;20.30;11.15;;;;;;;;;;5075784;28;20523;-65
2022/12/03 10:19:29;;;;;;;18.80;11.13;;;5.30;99.90;;;;;;5053765;28;20064;-64
2022/12/03 10:21:55;;;;;;;21.10;10.60;;;;;;;;;;5076758;28;20053;-64
2022/12/03 10:24:34;;;;;;;18.40;10.80;;;4.30;99.90;;;;;;5080927;28;20051;-65
2022/12/03 10:27:19;;;;;;;22.52;12.15;;;;;;;;;;5072555;28;20060;-64
2022/12/03 10:29:52;;;;;;;20.23;10.70;;;;;;;;;;5058159;28;20054;-64
2022/12/03 10:32:23;;;;;;;18.37;10.13;;;;;;;;;;5074178;28;20036;-64
2022/12/03 10:34:49;;;;;;;19.25;9.43;;;;;;;;;;5064569;28;20299;-64
2022/12/03 10:37:17;;;;;;;19.27;10.43;;;;;;;;;;5075024;28;20073;-65
2022/12/03 10:39:52;;;;;;;24.58;12.45;;;;;;;;;;5076402;28;20106;-65
2022/12/03 10:42:18;;;;;;;22.40;11.45;;;;;;;;;;5073403;28;20039;-64
2022/12/03 10:44:44;;;;;;;19.73;11.15;;;;;;;;;;5073479;28;20048;-64
2022/12/03 10:47:11;;;;;;;20.73;12.43;;;;;;;;;;5075324;28;20040;-64
2022/12/03 10:49:38;;;;;;;20.65;11.43;;;;;;;;;;5074061;28;20456;-64
2022/12/03 10:52:04;;;;;;;19.55;10.25;;;;;;;;;;5072361;28;20028;-65
2022/12/03 10:54:32;;;;;;;22.33;11.13;;;4.80;99.90;;;;;;5059879;28;20055;-64
2022/12/03 10:56:58;;;;;;;20.58;10.80;;;;;;;;;;5084796;28;20039;-64
2022/12/03 10:59:27;;;;;;;20.92;11.43;;;;;;;;;;5086120;28;20032;-64
2022/12/03 11:01:53;;;;;;;18.05;10.27;;;;;;;;;;5082774;28;20051;-65
2022/12/03 11:04:25;;;;;;;17.10;9.65;;;;;;;;;;5081912;28;20073;-64
2022/12/03 11:06:51;;;;;;;20.67;10.55;;;;;;;;;;5083661;28;20044;-65
2022/12/03 11:09:21;;;;;;;19.92;10.23;;;;;;;;;;5080116;28;20508;-64
2022/12/03 11:11:47;;;;;;;20.60;10.68;;;;;;;;;;5059150;28;20614;-64
2022/12/03 11:14:49;;;;;;;19.38;10.80;;;5.30;99.90;;;;;;5078320;28;20040;-64
2022/12/03 11:17:35;;;;;;;18.50;10.15;;;;;;;;;;5073540;28;20041;-64
2022/12/03 11:20:01;;;;;;;19.38;10.38;;;5.10;99.90;;;;;;5079374;28;20459;-64
2022/12/03 11:22:28;;;;;;;22.52;12.27;;;;;;;;;;5088805;28;20028;-64
2022/12/03 11:28:10;;;;;;;20.48;10.77;;;;;;;;;;5072870;28;20055;-64
2022/12/03 11:30:51;;;;;;;22.02;10.13;;;;;;;;;;5081791;28;20032;-64
2022/12/03 11:33:21;;;;;;;18.35;10.73;;;5.00;99.90;;;;;;5078381;28;20043;-64
2022/12/03 11:36:02;;;;;;;21.30;11.63;;;;;;;;;;5083820;28;20043;-64
2022/12/03 11:38:42;;;;;;;20.73;10.05;;;;;;;;;;5072252;28;20044;-64
2022/12/03 11:41:16;;;;;;;20.92;11.38;;;;;;;;;;5076387;28;20036;-65
2022/12/03 11:43:51;;;;;;;20.25;10.30;;;;;;;;;;5076179;28;20028;-64
2022/12/03 11:46:18;;;;;;;24.33;12.02;;;;;;;;;;5078783;28;20044;-64
2022/12/03 11:48:45;;;;;;;19.15;10.68;;;4.60;99.90;;;;;;5071234;28;20111;-65
2022/12/03 11:51:22;;;;;;;21.27;12.05;;;;;;;;;;5076325;28;20043;-64
2022/12/03 11:53:49;;;;;;;20.67;10.75;;;;;;;;;;5070252;28;20645;-64
2022/12/03 11:56:17;;;;;;;20.75;11.40;;;;;;;;;;5059873;28;20128;-65
2022/12/03 11:58:44;;;;;;;22.90;12.52;;;;;;;;;;5061661;28;20052;-65
2022/12/03 12:01:11;;;;;;;19.00;11.27;;;;;;;;;;5078517;28;20042;-65
2022/12/03 12:03:45;;;;;;;19.25;10.45;;;;;;;;;;5057210;28;20052;-65
2022/12/03 12:06:11;;;;;;;24.02;13.95;;;;;;;;;;5073096;28;20040;-65
2022/12/03 12:08:41;;;;;;;21.77;12.68;;;;;;;;;;5055126;28;20138;-65
2022/12/03 12:11:16;;;;;;;20.65;10.85;;;;;;;;;;5077920;28;20040;-65
2022/12/03 12:13:42;;;;;;;20.80;11.02;;;;;;;;;;5078735;28;20537;-65
2022/12/03 12:16:08;;;;;;;18.90;10.15;;;;;;;;;;5062299;28;20071;-65
2022/12/03 12:18:39;;;;;;;20.90;11.25;;;;;;;;;;5080434;28;20171;-65
2022/12/03 12:21:40;;;;;;;17.88;10.05;;;5.10;99.90;;;;;;5078069;28;20486;-64
2022/12/03 12:24:25;;;;;;;18.85;10.30;;;;;;;;;;5054340;28;20039;-64
2022/12/03 12:26:51;;;;;;;20.48;11.52;;;;;;;;;;5069711;28;20039;-63
2022/12/03 12:29:17;;;;;;;19.95;11.10;;;;;;;;;;5068796;28;20482;-63
2022/12/03 12:31:43;;;;;;;22.27;12.73;;;;;;;;;;5072801;28;20036;-64
2022/12/03 12:34:12;;;;;;;19.30;11.00;;;;;;;;;;5068595;28;20050;-64
2022/12/03 12:36:38;;;;;;;19.90;11.43;;;;;;;;;;5069592;28;20040;-63
2022/12/03 12:39:10;;;;;;;21.08;12.00;;;;;;;;;;5076065;28;20619;-64
2022/12/03 12:41:36;;;;;;;20.13;12.15;;;;;;;;;;5074105;28;20036;-64
2022/12/03 12:44:11;;;;;;;19.38;11.32;;;5.50;99.90;;;;;;5072887;28;20102;-63
2022/12/03 12:46:38;;;;;;;20.35;11.02;;;;;;;;;;5075962;28;20044;-63
2022/12/03 12:49:10;;;;;;;21.50;11.30;;;5.40;99.90;;;;;;5073957;28;20120;-63
2022/12/03 12:51:37;;;;;;;20.38;11.30;;;;;;;;;;5054829;28;20036;-64
2022/12/03 12:54:09;;;;;;;18.58;10.95;;;;;;;;;;5063857;28;20037;-63
2022/12/03 12:56:50;;;;;;;19.92;11.50;;;;;;;;;;5036768;28;20104;-63
2022/12/03 12:59:18;;;;;;;21.90;11.68;;;;;;;;;;5068175;28;20044;-62
2022/12/03 13:01:45;;;;;;;22.20;11.93;;;;;;;;;;5075260;28;20036;-62
2022/12/03 13:04:17;;;;;;;21.95;10.93;;;5.50;99.90;;;;;;5073659;28;20045;-62
2022/12/03 13:06:44;;;;;;;21.67;11.77;;;;;;;;;;5051886;28;20075;-62
2022/12/03 13:09:36;;;;;;;21.63;11.95;;;;;;;;;;5072841;28;20036;-62
2022/12/03 13:12:02;;;;;;;23.75;12.02;;;4.90;99.90;;;;;;5074979;28;20409;-62
2022/12/03 13:14:36;;;;;;;19.20;11.48;;;;;;;;;;5068558;28;20028;-63
2022/12/03 13:17:17;;;;;;;22.30;12.43;;;5.30;99.90;;;;;;5064017;28;20124;-62
2022/12/03 13:19:43;;;;;;;21.95;11.05;;;;;;;;;;5079578;28;20124;-62
2022/12/03 13:22:12;;;;;;;21.58;12.35;;;;;;;;;;5076440;28;20383;-63
2022/12/03 13:24:39;;;;;;;20.33;10.73;;;;;;;;;;5075762;28;20036;-62
2022/12/03 13:27:05;;;;;;;22.52;11.90;;;;;;;;;;5076922;28;20630;-63
2022/12/03 13:29:31;;;;;;;19.52;10.60;;;;;;;;;;5078683;28;20064;-61
2022/12/03 13:31:58;;;;;;;20.60;11.73;;;4.60;99.90;;;;;;5071471;28;20096;-62
2022/12/03 13:34:26;;;;;;;21.13;10.85;;;;;;;;;;5065158;28;20454;-62
2022/12/03 13:36:52;;;;;;;21.42;11.45;;;;;;;;;;5069146;28;20079;-62
2022/12/03 13:39:24;;;;;;;21.63;12.45;;;;;;;;;;5057865;28;20067;-62
2022/12/03 13:44:39;;;;;;;25.48;13.95;;;;;;;;;;5076079;28;20044;-62
2022/12/03 13:47:12;;;;;;;25.40;14.18;;;;;;;;;;5076755;28;20040;-58
2022/12/03 13:49:37;;;;;;;25.00;12.57;;;;;;;;;;5073806;28;20067;-60
2022/12/03 13:52:09;;;;;;;23.35;13.07;;;;;;;;;;5078258;28;20068;-60
2022/12/03 13:54:37;;;;;;;22.05;12.73;;;;;;;;;;5076176;28;20217;-60
2022/12/03 13:57:05;;;;;;;22.73;11.52;;;;;;;;;;5078471;28;20042;-59
2022/12/03 13:59:31;;;;;;;22.45;13.85;;;;;;;;;;5078168;28;20036;-58
2022/12/03 14:01:57;;;;;;;21.25;11.75;;;;;;;;;;5077315;28;20034;-59
2022/12/03 14:04:23;;;;;;;24.73;12.95;;;;;;;;;;5066340;28;20036;-58
2022/12/03 14:06:49;;;;;;;22.17;11.82;;;;;;;;;;5071249;28;20068;-59
2022/12/03 14:09:15;;;;;;;25.30;12.32;;;;;;;;;;5073324;28;20870;-62
2022/12/03 14:14:25;;;;;;;23.13;11.98;;;;;;;;;;5070265;28;20036;-62
2022/12/03 14:16:51;;;;;;;21.88;12.52;;;;;;;;;;5085057;28;20047;-59
2022/12/03 14:19:17;;;;;;;23.38;12.13;;;;;;;;;;5085125;28;20478;-59
2022/12/03 14:21:43;;;;;;;25.85;12.07;;;;;;;;;;5065173;28;20040;-60
2022/12/03 14:24:09;;;;;;;24.33;12.25;;;;;;;;;;5086705;28;20032;-60
2022/12/03 14:26:35;;;;;;;23.05;12.27;;;;;;;;;;5084482;28;20116;-60
2022/12/03 14:29:02;;;;;;;27.05;12.82;;;;;;;;;;5083964;28;20043;-60
2022/12/03 14:31:28;;;;;;;24.23;12.70;;;;;;;;;;5081237;28;20111;-59
2022/12/03 14:33:54;;;;;;;22.13;11.57;;;;;;;;;;5080734;28;20498;-60
2022/12/03 14:36:21;;;;;;;21.42;11.65;;;;;;;;;;5076858;28;20566;-59
2022/12/03 14:38:47;;;;;;;23.08;11.75;;;;;;;;;;5078886;28;20040;-59